Time;durP1;ratioP1;P1;durP2;ratioP2;P2;SDS_P1;SDS_P2;PMS_P1;PMS_P2;Temp;Humidity;BMP_temperature;BMP_pressure;BME280_temperature;BME280_humidity;BME280_pressure;Samples;Min_cycle;Max_cycle;Signal;HPM_P1;HPM_P2
2023/01/10 00:04:47;;;;;;;48.70;27.57;;;6.00;99.90;;;;;;10056161;29;20237;-87
2023/01/10 00:09:50;;;;;;;48.00;28.27;;;6.30;99.90;;;;;;10061662;29;20314;-87
2023/01/10 00:14:53;;;;;;;46.80;26.27;;;6.10;99.90;;;;;;10057694;29;20238;-86
2023/01/10 00:19:56;;;;;;;44.20;28.13;;;6.30;99.90;;;;;;10052557;29;20260;-86
2023/01/10 00:24:58;;;;;;;50.50;31.27;;;6.40;99.90;;;;;;10057218;29;20301;-86
2023/01/10 00:30:12;;;;;;;36.30;22.67;;;7.20;99.90;;;;;;10057217;29;20664;-86
2023/01/10 00:35:15;;;;;;;38.30;22.33;;;8.00;99.90;;;;;;10056283;29;20245;-86
2023/01/10 00:40:17;;;;;;;32.90;21.00;;;8.30;99.90;;;;;;10056887;29;20320;-86
2023/01/10 00:45:22;;;;;;;34.00;20.27;;;9.20;99.90;;;;;;10056998;29;20241;-86
2023/01/10 00:50:25;;;;;;;28.90;18.97;;;9.80;99.90;;;;;;10033060;29;20306;-86
2023/01/10 00:55:28;;;;;;;29.60;18.37;;;10.10;99.90;;;;;;10056063;29;20246;-86
2023/01/10 01:00:30;;;;;;;27.93;17.87;;;10.00;99.90;;;;;;10055367;29;20273;-86
2023/01/10 01:05:38;;;;;;;27.17;18.67;;;10.10;99.90;;;;;;10038620;29;20290;-86
2023/01/10 01:10:41;;;;;;;29.40;19.73;;;10.00;99.90;;;;;;10055625;29;20233;-86
2023/01/10 01:15:44;;;;;;;30.93;19.63;;;10.10;99.90;;;;;;10055566;29;20266;-86
2023/01/10 01:20:51;;;;;;;30.30;19.60;;;9.60;99.90;;;;;;10039342;29;20333;-87
2023/01/10 01:25:54;;;;;;;30.57;19.77;;;9.10;99.90;;;;;;10054436;29;20661;-86
2023/01/10 01:30:57;;;;;;;33.17;18.97;;;8.40;99.90;;;;;;10055125;29;20256;-86
2023/01/10 01:35:59;;;;;;;33.00;19.03;;;8.30;99.90;;;;;;10053093;29;20687;-86
2023/01/10 01:41:03;;;;;;;30.40;18.77;;;8.40;99.90;;;;;;10054773;29;20237;-86
2023/01/10 01:46:06;;;;;;;31.60;19.70;;;8.30;99.90;;;;;;10054263;29;20641;-87
2023/01/10 01:51:21;;;;;;;30.30;19.17;;;8.60;99.90;;;;;;10038642;29;20595;-86
2023/01/10 01:56:36;;;;;;;25.17;18.43;;;8.20;99.90;;;;;;10054102;29;20256;-86
2023/01/10 02:01:40;;;;;;;28.80;18.77;;;8.30;99.90;;;;;;10054111;29;20272;-86
2023/01/10 02:06:45;;;;;;;26.33;16.90;;;7.80;99.90;;;;;;10055388;29;20316;-86
2023/01/10 02:11:48;;;;;;;25.00;15.50;;;7.90;99.90;;;;;;10037856;29;20289;-87
2023/01/10 02:16:51;;;;;;;26.07;15.73;;;8.00;99.90;;;;;;10052520;29;20265;-86
2023/01/10 02:22:15;;;;;;;25.87;15.50;;;8.50;99.90;;;;;;10051937;29;20308;-86
2023/01/10 02:27:41;;;;;;;20.63;14.57;;;8.60;99.90;;;;;;10052866;29;20690;-86
2023/01/10 02:32:54;;;;;;;26.93;16.60;;;8.80;99.90;;;;;;10047971;29;20237;-86
2023/01/10 02:38:33;;;;;;;26.57;15.47;;;7.90;99.90;;;;;;10035133;29;20727;-86
2023/01/10 02:43:50;;;;;;;22.07;14.67;;;8.20;99.90;;;;;;10050778;29;20786;-86
2023/01/10 02:48:53;;;;;;;21.60;14.50;;;8.70;99.90;;;;;;10036032;29;20236;-86
2023/01/10 02:53:59;;;;;;;22.83;13.93;;;8.60;99.90;;;;;;10052283;29;20850;-87
2023/01/10 02:59:39;;;;;;;20.93;14.23;;;8.10;99.90;;;;;;10034235;29;20261;-86
2023/01/10 03:05:03;;;;;;;21.10;13.77;;;7.90;99.90;;;;;;10035816;29;20626;-86
2023/01/10 03:10:26;;;;;;;20.87;13.67;;;7.90;99.90;;;;;;10052707;29;20305;-86
2023/01/10 03:15:35;;;;;;;22.07;15.37;;;8.10;99.90;;;;;;10052952;29;20249;-86
2023/01/10 03:20:41;;;;;;;20.37;13.10;;;8.30;99.90;;;;;;10051468;29;20322;-86
2023/01/10 03:25:45;;;;;;;20.47;12.33;;;8.70;99.90;;;;;;10034672;29;20770;-87
2023/01/10 03:30:53;;;;;;;25.10;13.40;;;9.10;99.90;;;;;;10054880;29;20710;-86
2023/01/10 03:36:16;;;;;;;20.30;13.17;;;9.20;99.90;;;;;;10058546;29;20249;-86
2023/01/10 03:41:40;;;;;;;19.40;13.00;;;9.10;99.90;;;;;;10058594;29;20260;-86
2023/01/10 03:46:53;;;;;;;19.60;12.40;;;9.00;99.90;;;;;;10015335;29;20298;-87
2023/01/10 03:51:57;;;;;;;21.73;13.17;;;8.80;99.90;;;;;;10057058;29;20768;-87
2023/01/10 03:57:00;;;;;;;16.63;11.53;;;8.50;99.90;;;;;;10040993;29;20262;-86
2023/01/10 04:02:04;;;;;;;16.17;12.30;;;7.60;99.90;;;;;;10056939;29;20301;-86
2023/01/10 04:07:07;;;;;;;14.10;11.07;;;6.70;99.90;;;;;;10056780;29;20253;-86
2023/01/10 04:12:09;;;;;;;18.07;12.17;;;6.10;99.90;;;;;;10056780;29;20294;-86
2023/01/10 04:17:13;;;;;;;18.90;11.70;;;5.90;99.90;;;;;;10056773;29;20261;-86
2023/01/10 04:22:16;;;;;;;17.30;12.50;;;5.90;99.90;;;;;;10056249;29;20945;-87
2023/01/10 04:27:19;;;;;;;17.13;12.77;;;5.70;99.90;;;;;;10039666;29;20285;-86
2023/01/10 04:32:21;;;;;;;17.60;11.63;;;6.20;99.90;;;;;;10056739;29;20245;-86
2023/01/10 04:37:24;;;;;;;18.93;11.73;;;6.60;99.90;;;;;;10056636;29;20257;-87
2023/01/10 04:42:26;;;;;;;17.90;12.50;;;7.20;99.90;;;;;;10055162;29;20233;-86
2023/01/10 04:47:29;;;;;;;17.27;11.30;;;7.30;99.90;;;;;;10055437;29;20302;-86
2023/01/10 04:52:31;;;;;;;19.50;12.20;;;7.60;99.90;;;;;;10055811;29;20237;-86
2023/01/10 04:57:34;;;;;;;17.03;12.07;;;8.30;99.90;;;;;;10038407;29;20711;-86
2023/01/10 05:02:42;;;;;;;20.20;13.43;;;8.50;99.90;;;;;;10055399;29;20269;-87
2023/01/10 05:07:46;;;;;;;18.97;12.50;;;8.70;99.90;;;;;;10054403;29;20237;-86
2023/01/10 05:12:48;;;;;;;15.97;11.50;;;9.10;99.90;;;;;;10053797;29;20650;-86
2023/01/10 05:17:57;;;;;;;14.10;10.33;;;9.60;99.90;;;;;;10054485;29;20660;-86
2023/01/10 05:22:59;;;;;;;14.23;11.07;;;10.00;99.90;;;;;;10036771;29;20237;-85
2023/01/10 05:28:02;;;;;;;16.77;11.40;;;10.20;99.90;;;;;;10053377;29;20305;-86
2023/01/10 05:33:05;;;;;;;14.53;10.87;;;10.20;99.90;;;;;;10054189;29;20305;-86
2023/01/10 05:38:07;;;;;;;15.17;10.53;;;10.10;99.90;;;;;;10054851;29;20641;-87
2023/01/10 05:43:11;;;;;;;15.07;10.80;;;10.30;99.90;;;;;;10053129;29;20234;-86
2023/01/10 05:48:13;;;;;;;15.07;9.90;;;11.20;99.90;;;;;;10035814;29;20249;-86
2023/01/10 05:53:16;;;;;;;14.80;9.33;;;10.50;99.90;;;;;;10052657;29;20635;-86
2023/01/10 05:58:18;;;;;;;17.20;10.23;;;10.00;99.90;;;;;;10051801;29;21010;-86
2023/01/10 06:03:22;;;;;;;14.53;10.17;;;9.80;99.90;;;;;;10053014;29;20707;-86
2023/01/10 06:08:25;;;;;;;14.97;9.77;;;9.60;99.90;;;;;;10051340;29;20267;-86
2023/01/10 06:13:27;;;;;;;12.27;9.50;;;9.90;99.90;;;;;;10052070;29;20289;-86
2023/01/10 06:18:30;;;;;;;10.67;8.07;;;10.00;99.90;;;;;;10053030;29;20265;-86
2023/01/10 06:23:32;;;;;;;11.53;8.57;;;10.00;99.90;;;;;;10051570;29;20301;-86
2023/01/10 06:28:35;;;;;;;12.87;8.70;;;10.10;99.90;;;;;;10052747;29;20237;-86
2023/01/10 06:33:37;;;;;;;16.33;9.97;;;10.00;99.90;;;;;;10050664;29;20237;-87
2023/01/10 06:38:40;;;;;;;13.80;9.60;;;9.80;99.90;;;;;;10034918;29;20310;-86
2023/01/10 06:43:44;;;;;;;11.57;7.97;;;9.30;99.90;;;;;;10049713;29;20233;-87
2023/01/10 06:48:48;;;;;;;11.17;8.13;;;9.50;99.90;;;;;;10053097;29;20241;-87
2023/01/10 06:53:51;;;;;;;10.50;8.17;;;9.80;99.90;;;;;;10052823;29;20309;-85
2023/01/10 06:58:53;;;;;;;13.43;9.00;;;9.30;99.90;;;;;;10049759;29;20334;-87
2023/01/10 07:03:56;;;;;;;12.63;8.53;;;8.40;99.90;;;;;;10050284;29;20269;-91
2023/01/10 07:08:58;;;;;;;13.40;9.73;;;9.40;99.90;;;;;;10035712;29;20296;-90
2023/01/10 07:14:01;;;;;;;14.17;9.90;;;8.50;99.90;;;;;;10035158;29;20249;-91
2023/01/10 07:19:04;;;;;;;18.07;11.60;;;7.50;99.90;;;;;;10035499;29;20654;-92
2023/01/10 07:24:07;;;;;;;10.97;8.57;;;6.80;99.90;;;;;;10035313;29;20696;-92
2023/01/10 07:29:10;;;;;;;13.30;9.77;;;7.80;99.90;;;;;;10034902;29;20240;-91
2023/01/10 07:34:13;;;;;;;15.70;9.67;;;7.80;99.90;;;;;;10051732;29;20289;-92
2023/01/10 07:39:15;;;;;;;13.77;9.40;;;7.60;99.90;;;;;;10035330;29;20321;-91
2023/01/10 07:44:18;;;;;;;15.37;9.37;;;7.10;99.90;;;;;;10035010;29;20214;-92
2023/01/10 07:49:21;;;;;;;10.47;8.43;;;7.50;99.90;;;;;;10034660;29;20713;-92
2023/01/10 07:54:24;;;;;;;12.10;7.30;;;7.60;99.90;;;;;;10052333;29;20234;-91
2023/01/10 07:59:26;;;;;;;8.67;6.70;;;7.80;99.90;;;;;;10036747;29;20324;-91
2023/01/10 08:04:29;;;;;;;12.70;7.10;;;8.50;99.90;;;;;;10036178;29;20245;-92
2023/01/10 08:09:31;;;;;;;11.37;8.07;;;9.10;99.90;;;;;;10035239;29;20297;-91
2023/01/10 08:14:34;;;;;;;10.43;7.27;;;9.30;99.90;;;;;;10034625;29;20253;-92
2023/01/10 08:19:37;;;;;;;14.20;7.87;;;9.00;99.90;;;;;;10056769;29;20252;-92
2023/01/10 08:24:39;;;;;;;7.20;6.17;;;9.40;99.90;;;;;;10041165;29;20241;-91
2023/01/10 08:29:42;;;;;;;9.77;7.53;;;10.30;99.90;;;;;;10041282;29;20771;-92
2023/01/10 08:34:44;;;;;;;13.33;9.77;;;10.20;99.90;;;;;;10041658;29;20229;-90
2023/01/10 08:39:47;;;;;;;11.87;6.83;;;10.20;99.90;;;;;;10057332;29;20256;-92
2023/01/10 08:44:49;;;;;;;9.90;6.97;;;11.00;99.90;;;;;;10040431;29;20241;-92
2023/01/10 08:49:52;;;;;;;12.33;7.63;;;11.30;99.90;;;;;;10056705;29;20294;-91
2023/01/10 08:54:54;;;;;;;12.13;7.80;;;11.00;99.90;;;;;;10040640;29;20710;-92
2023/01/10 08:59:57;;;;;;;11.57;7.10;;;10.70;99.90;;;;;;10056534;29;20277;-92
2023/01/10 09:05:00;;;;;;;12.30;7.67;;;10.80;99.90;;;;;;10056158;29;20266;-91
2023/01/10 09:10:03;;;;;;;16.73;8.10;;;10.70;99.90;;;;;;10056471;29;20253;-92
2023/01/10 09:15:06;;;;;;;10.97;7.50;;;10.80;99.90;;;;;;10056560;29;20683;-91
2023/01/10 09:20:09;;;;;;;12.77;8.10;;;10.60;99.90;;;;;;10056621;29;20264;-91
2023/01/10 09:25:12;;;;;;;10.27;7.10;;;10.60;99.90;;;;;;10040030;29;20259;-91
2023/01/10 09:30:15;;;;;;;8.30;6.57;;;10.90;99.90;;;;;;10038711;29;20703;-91
2023/01/10 09:35:17;;;;;;;9.07;6.47;;;11.20;99.90;;;;;;10038802;29;20253;-91
2023/01/10 09:40:34;;;;;;;13.83;10.70;;;11.20;99.90;;;;;;10055042;29;20313;-92
2023/01/10 09:45:58;;;;;;;12.87;7.17;;;11.10;99.90;;;;;;10038416;29;20297;-91
2023/01/10 09:51:17;;;;;;;12.03;8.07;;;11.20;99.90;;;;;;10054381;29;20237;-91
2023/01/10 09:56:20;;;;;;;13.87;8.27;;;10.90;99.90;;;;;;10041492;29;20221;-91
2023/01/10 10:01:28;;;;;;;9.70;7.17;;;10.40;99.90;;;;;;10053495;29;20296;-91
2023/01/10 10:06:33;;;;;;;9.70;7.00;;;10.80;99.90;;;;;;10054104;29;20317;-91
2023/01/10 10:11:49;;;;;;;10.90;6.83;;;11.10;99.90;;;;;;10053705;29;20270;-90
2023/01/10 10:17:18;;;;;;;14.77;9.20;;;10.90;99.90;;;;;;10037321;29;20656;-90
2023/01/10 10:22:47;;;;;;;10.50;7.10;;;10.80;99.90;;;;;;10024338;29;20276;-91
2023/01/10 10:28:10;;;;;;;13.63;7.30;;;10.60;99.90;;;;;;9900737;29;20239;-91
2023/01/10 10:33:29;;;;;;;10.37;7.47;;;10.80;99.90;;;;;;9897588;29;20252;-91
2023/01/10 10:38:34;;;;;;;10.47;7.30;;;;;;;;;;9896968;29;20264;-91
2023/01/10 10:43:38;;;;;;;9.70;7.83;;;10.50;99.90;;;;;;9882306;30;20244;-91
2023/01/10 10:48:55;;;;;;;5.73;4.37;;;10.80;99.90;;;;;;9896537;30;20243;-90
2023/01/10 10:53:58;;;;;;;7.73;6.07;;;10.90;99.90;;;;;;9896602;30;20293;-91
2023/01/10 10:59:03;;;;;;;8.77;5.80;;;10.60;99.90;;;;;;9896405;30;20317;-90
2023/01/10 11:04:11;;;;;;;11.30;8.37;;;10.50;99.90;;;;;;9999231;29;20261;-90
2023/01/10 11:09:32;;;;;;;10.07;5.53;;;10.30;99.90;;;;;;10050842;29;20636;-90
2023/01/10 11:14:47;;;;;;;7.37;5.47;;;10.90;99.90;;;;;;10051823;29;20256;-89
2023/01/10 11:20:16;;;;;;;9.83;6.73;;;11.10;99.90;;;;;;10050763;29;20264;-89
2023/01/10 11:25:21;;;;;;;8.67;7.60;;;11.10;99.90;;;;;;10048344;29;20648;-90
2023/01/10 11:30:27;;;;;;;8.40;6.07;;;11.10;99.90;;;;;;10050423;29;20301;-90
2023/01/10 11:35:36;;;;;;;10.03;7.37;;;10.80;99.90;;;;;;10051773;29;20666;-91
2023/01/10 11:41:02;;;;;;;10.03;7.60;;;10.90;99.90;;;;;;10052375;29;20273;-91
2023/01/10 11:46:17;;;;;;;17.90;11.03;;;11.10;99.90;;;;;;10050879;29;20270;-90
2023/01/10 11:51:27;;;;;;;14.20;9.57;;;10.50;99.90;;;;;;10051708;29;20241;-90
2023/01/10 11:56:33;;;;;;;10.53;6.73;;;10.80;99.90;;;;;;10058221;29;20229;-90
2023/01/10 12:01:44;;;;;;;12.13;8.53;;;11.00;99.90;;;;;;10058146;29;20297;-92
2023/01/10 12:06:50;;;;;;;12.23;8.07;;;10.90;99.90;;;;;;10041610;29;20249;-91
2023/01/10 12:12:02;;;;;;;5.57;3.97;;;11.30;99.90;;;;;;10057941;29;20297;-91
2023/01/10 12:17:05;;;;;;;10.60;7.73;;;11.60;99.90;;;;;;10057610;29;20242;-91
2023/01/10 12:22:13;;;;;;;8.97;6.57;;;11.20;99.90;;;;;;10041350;29;20757;-91
2023/01/10 12:27:17;;;;;;;9.50;5.87;;;11.20;99.90;;;;;;10057969;29;20237;-92
2023/01/10 12:32:25;;;;;;;9.33;6.90;;;11.20;99.90;;;;;;10057224;29;20246;-91
2023/01/10 12:37:36;;;;;;;9.70;6.53;;;11.10;99.90;;;;;;10040699;29;20293;-91
2023/01/10 12:48:15;;;;;;;18.50;11.87;;;10.90;99.90;;;;;;10042170;29;20261;-91
2023/01/10 12:53:18;;;;;;;10.43;7.40;;;10.60;99.90;;;;;;10040455;29;20237;-91
2023/01/10 12:58:34;;;;;;;12.70;7.63;;;10.40;99.90;;;;;;10040149;29;20249;-91
2023/01/10 13:03:38;;;;;;;10.07;6.80;;;10.20;99.90;;;;;;10039619;29;20261;-90
2023/01/10 13:08:42;;;;;;;5.63;4.30;;;10.20;99.90;;;;;;10056383;29;20305;-91
2023/01/10 13:13:52;;;;;;;9.03;6.10;;;10.90;99.90;;;;;;10055899;29;20237;-91
2023/01/10 13:19:09;;;;;;;8.17;6.63;;;10.90;99.90;;;;;;10039236;29;20253;-92
2023/01/10 13:24:23;;;;;;;8.53;5.97;;;10.80;99.90;;;;;;10023902;29;20241;-91
2023/01/10 13:29:29;;;;;;;4.87;4.37;;;11.00;99.90;;;;;;10038755;29;20293;-91
2023/01/10 13:34:34;;;;;;;8.00;6.03;;;11.30;99.90;;;;;;10054753;29;20269;-91
2023/01/10 13:39:40;;;;;;;7.43;5.40;;;11.80;99.90;;;;;;10054329;29;20325;-91
2023/01/10 13:45:08;;;;;;;8.90;5.83;;;11.30;99.90;;;;;;10038319;29;20704;-92
2023/01/10 13:50:32;;;;;;;6.10;4.37;;;11.50;99.90;;;;;;10054515;29;20703;-91
2023/01/10 13:55:38;;;;;;;7.90;5.27;;;10.70;99.90;;;;;;10054440;29;20245;-91
2023/01/10 14:06:28;;;;;;;7.53;5.83;;;10.50;99.90;;;;;;10037948;29;20245;-90
2023/01/10 14:11:43;;;;;;;10.73;7.60;;;10.10;99.90;;;;;;10036882;29;20244;-90
2023/01/10 14:16:49;;;;;;;11.27;7.40;;;9.60;99.90;;;;;;10052085;29;20261;-90
2023/01/10 14:21:56;;;;;;;10.97;6.37;;;9.20;99.90;;;;;;10035155;29;20233;-90
2023/01/10 14:27:01;;;;;;;10.87;8.20;;;8.80;99.90;;;;;;10013810;29;20275;-90
2023/01/10 14:32:14;;;;;;;12.47;8.13;;;8.50;99.90;;;;;;10013433;29;20321;-90
2023/01/10 14:37:30;;;;;;;16.43;10.23;;;7.50;99.90;;;;;;9998241;29;20238;-90
2023/01/10 14:42:35;;;;;;;20.20;11.33;;;7.80;99.90;;;;;;9997798;29;20314;-90
2023/01/10 14:47:37;;;;;;;20.07;11.37;;;7.90;99.90;;;;;;9997553;29;20242;-90
2023/01/10 14:52:41;;;;;;;10.30;7.47;;;8.00;99.90;;;;;;10007449;29;20767;-90
2023/01/10 14:57:59;;;;;;;20.43;14.10;;;8.60;99.90;;;;;;10030119;29;20279;-90
2023/01/10 15:03:03;;;;;;;25.27;14.33;;;8.50;99.90;;;;;;10023628;29;20264;-90
2023/01/10 15:08:24;;;;;;;12.93;9.63;;;7.30;99.90;;;;;;10051006;29;20657;-90
2023/01/10 15:13:30;;;;;;;11.20;8.70;;;8.40;99.90;;;;;;10052120;29;20632;-90
2023/01/10 15:18:40;;;;;;;11.07;7.60;;;9.50;99.90;;;;;;10034424;29;20257;-90
2023/01/10 15:23:45;;;;;;;11.03;7.57;;;9.80;99.90;;;;;;10053492;29;20268;-90
2023/01/10 15:29:13;;;;;;;11.33;7.57;;;9.90;99.90;;;;;;10041954;29;20301;-90
2023/01/10 15:34:25;;;;;;;8.33;7.43;;;10.10;99.90;;;;;;10042766;29;20312;-90
2023/01/10 15:39:38;;;;;;;11.57;8.60;;;10.30;99.90;;;;;;10042892;29;20249;-90
2023/01/10 15:44:51;;;;;;;20.00;13.47;;;10.00;99.90;;;;;;10059280;29;20233;-90
2023/01/10 15:49:54;;;;;;;16.33;10.67;;;9.70;99.90;;;;;;10042715;29;20257;-90
2023/01/10 15:54:56;;;;;;;12.43;8.20;;;10.00;99.90;;;;;;10089705;29;20376;-90
2023/01/10 15:59:59;;;;;;;10.90;7.27;;;10.00;99.90;;;;;;10097007;29;20276;-90
2023/01/10 16:05:16;;;;;;;13.10;9.70;;;10.20;99.90;;;;;;10056594;29;20700;-89
2023/01/10 16:10:25;;;;;;;19.77;12.93;;;10.00;99.90;;;;;;10041946;29;20297;-90
2023/01/10 16:15:34;;;;;;;16.53;11.80;;;10.00;99.90;;;;;;10041902;29;20656;-90
2023/01/10 16:20:42;;;;;;;28.33;14.70;;;9.80;99.90;;;;;;10041459;29;20249;-87
2023/01/10 16:25:54;;;;;;;21.90;14.03;;;10.40;99.90;;;;;;10057913;29;20225;-87
2023/01/10 16:30:57;;;;;;;23.67;14.77;;;10.80;99.90;;;;;;10058743;29;20654;-88
2023/01/10 16:36:00;;;;;;;26.80;16.07;;;10.40;99.90;;;;;;10057870;29;20294;-87
2023/01/10 16:46:24;;;;;;;22.87;13.77;;;9.80;99.90;;;;;;10056794;29;20289;-87
2023/01/10 16:51:31;;;;;;;25.47;17.67;;;9.60;99.90;;;;;;10055941;29;20986;-87
2023/01/10 16:56:33;;;;;;;28.63;15.93;;;9.40;99.90;;;;;;10039773;29;20246;-87
2023/01/10 17:01:46;;;;;;;26.20;16.60;;;8.70;99.90;;;;;;10040517;29;20281;-87
2023/01/10 17:06:49;;;;;;;30.90;16.73;;;8.20;99.90;;;;;;10055863;29;20711;-87
2023/01/10 17:12:05;;;;;;;30.10;16.20;;;8.60;99.90;;;;;;10055764;29;20624;-87
2023/01/10 17:17:09;;;;;;;22.13;13.37;;;9.00;99.90;;;;;;10039077;29;20241;-88
2023/01/10 17:22:12;;;;;;;24.57;13.73;;;9.30;99.90;;;;;;10038499;29;20265;-88
2023/01/10 17:27:15;;;;;;;22.90;14.27;;;9.60;99.90;;;;;;10039122;29;20695;-87
2023/01/10 17:32:18;;;;;;;21.13;14.93;;;9.90;99.90;;;;;;10055421;29;20273;-88
2023/01/10 17:37:20;;;;;;;27.40;16.63;;;9.80;99.90;;;;;;10054375;29;20642;-89
2023/01/10 17:42:23;;;;;;;26.03;16.43;;;9.60;99.90;;;;;;10050268;29;20723;-88
2023/01/10 17:47:25;;;;;;;31.10;21.00;;;9.50;99.90;;;;;;10035926;29;20298;-90
2023/01/10 17:52:28;;;;;;;40.40;23.67;;;9.10;99.90;;;;;;10054387;29;20316;-88
2023/01/10 17:57:32;;;;;;;31.83;19.27;;;;;;;;;;10036670;29;20237;-88
2023/01/10 18:02:36;;;;;;;33.07;22.03;;;;;;;;;;10036407;29;20273;-88
2023/01/10 18:07:39;;;;;;;30.63;18.57;;;6.60;99.90;;;;;;10051399;29;20285;-87
2023/01/10 18:12:42;;;;;;;17.73;11.17;;;6.40;99.90;;;;;;10012498;29;20236;-88
2023/01/10 18:17:44;;;;;;;21.27;11.83;;;7.20;99.90;;;;;;10045717;29;20245;-88
2023/01/10 18:28:08;;;;;;;19.03;9.97;;;8.60;99.90;;;;;;10044657;29;20987;-89
2023/01/10 18:33:10;;;;;;;27.63;11.80;;;9.20;99.90;;;;;;10035110;29;20735;-89
2023/01/10 18:38:13;;;;;;;21.13;12.03;;;9.50;99.90;;;;;;10028561;29;20237;-89
2023/01/10 18:43:15;;;;;;;16.43;10.37;;;9.70;99.90;;;;;;10051627;29;20265;-89
2023/01/10 18:48:20;;;;;;;25.77;15.27;;;9.40;99.90;;;;;;10051091;29;20309;-89
2023/01/10 18:53:22;;;;;;;28.27;15.77;;;9.30;99.90;;;;;;10052123;29;20294;-89
2023/01/10 18:58:27;;;;;;;20.27;13.57;;;9.30;99.90;;;;;;10050454;29;20233;-89
2023/01/10 19:03:31;;;;;;;23.07;14.13;;;9.80;99.90;;;;;;10050183;29;20345;-89
2023/01/10 19:08:35;;;;;;;22.70;13.57;;;9.90;99.90;;;;;;10020065;29;20305;-89
2023/01/10 19:13:37;;;;;;;26.70;16.60;;;10.10;99.90;;;;;;10050205;29;20237;-89
2023/01/10 19:18:41;;;;;;;25.17;15.17;;;10.20;99.90;;;;;;10050886;29;20256;-89
2023/01/10 19:23:46;;;;;;;33.83;19.50;;;10.10;99.90;;;;;;10047308;29;20322;-89
2023/01/10 19:28:49;;;;;;;35.43;21.40;;;9.60;99.90;;;;;;10045767;29;20293;-89
2023/01/10 19:33:52;;;;;;;37.50;20.27;;;9.10;99.90;;;;;;10033957;29;20245;-89
2023/01/10 19:38:56;;;;;;;47.17;24.17;;;9.10;99.90;;;;;;10034319;29;20766;-89
2023/01/10 19:44:02;;;;;;;41.57;22.70;;;8.90;99.90;;;;;;10029112;29;20348;-89
2023/01/10 19:49:06;;;;;;;40.60;21.07;;;8.70;99.90;;;;;;10032984;29;20253;-89
2023/01/10 19:54:09;;;;;;;42.60;24.33;;;8.60;99.90;;;;;;10048385;29;20692;-90
2023/01/10 19:59:16;;;;;;;55.87;28.90;;;7.90;99.90;;;;;;10034029;29;20241;-89
2023/01/10 20:04:19;;;;;;;45.57;28.60;;;7.50;99.90;;;;;;10034673;29;20281;-89
2023/01/10 20:09:21;;;;;;;62.07;35.87;;;7.20;99.90;;;;;;10042302;29;20246;-89
2023/01/10 20:14:24;;;;;;;58.70;35.00;;;6.90;99.90;;;;;;10051502;29;20661;-88
2023/01/10 20:19:26;;;;;;;58.13;36.40;;;6.90;99.90;;;;;;10037659;29;20718;-88
2023/01/10 20:24:29;;;;;;;68.17;40.57;;;7.00;99.90;;;;;;10056411;29;20358;-89
2023/01/10 20:29:33;;;;;;;72.17;41.53;;;7.00;99.90;;;;;;10055915;29;20301;-88
2023/01/10 20:34:35;;;;;;;70.77;39.33;;;6.80;99.90;;;;;;10057054;29;20285;-88
2023/01/10 20:39:38;;;;;;;71.93;39.43;;;6.60;99.90;;;;;;10035200;29;20276;-89
2023/01/10 20:44:41;;;;;;;80.60;42.57;;;6.50;99.90;;;;;;10039311;29;20290;-88
2023/01/10 20:49:43;;;;;;;85.43;41.77;;;6.50;99.90;;;;;;10054930;29;20225;-88
2023/01/10 20:54:46;;;;;;;76.73;37.50;;;6.50;99.90;;;;;;10054162;29;20713;-89
2023/01/10 20:59:48;;;;;;;73.10;39.20;;;6.70;99.90;;;;;;10032427;29;20249;-88
2023/01/10 21:04:51;;;;;;;59.60;34.73;;;6.80;99.90;;;;;;10050051;29;20328;-88
2023/01/10 21:09:53;;;;;;;48.73;27.40;;;6.60;99.90;;;;;;10055008;29;20233;-88
2023/01/10 21:14:56;;;;;;;49.27;29.60;;;6.60;99.90;;;;;;10051769;29;20245;-88
2023/01/10 21:19:58;;;;;;;56.57;29.73;;;6.70;99.90;;;;;;10039795;29;20229;-88
2023/01/10 21:25:01;;;;;;;43.00;27.10;;;6.80;99.90;;;;;;10054358;29;20944;-88
2023/01/10 21:30:05;;;;;;;25.00;15.70;;;7.30;99.90;;;;;;10052535;29;20241;-87
2023/01/10 21:35:07;;;;;;;44.23;25.13;;;8.50;99.90;;;;;;10038683;29;20249;-88
2023/01/10 21:40:10;;;;;;;43.80;22.83;;;9.00;99.90;;;;;;10054465;29;20241;-88
2023/01/10 21:45:13;;;;;;;53.87;28.10;;;9.20;99.90;;;;;;10053599;29;20830;-88
2023/01/10 21:50:17;;;;;;;44.17;26.10;;;8.50;99.90;;;;;;10054209;29;20229;-88
2023/01/10 21:55:22;;;;;;;47.23;26.53;;;7.70;99.90;;;;;;10037884;29;20262;-88
2023/01/10 22:00:25;;;;;;;43.83;25.63;;;7.30;99.90;;;;;;9714807;29;9999996;-88
2023/01/10 22:05:27;;;;;;;39.10;24.77;;;7.10;99.90;;;;;;10035027;29;20249;-87
2023/01/10 22:10:30;;;;;;;33.77;23.57;;;7.00;99.90;;;;;;10033993;29;20641;-88
2023/01/10 22:15:33;;;;;;;41.50;23.93;;;6.90;99.90;;;;;;10023220;29;20290;-88
2023/01/10 22:20:35;;;;;;;44.03;27.57;;;6.90;99.90;;;;;;10033506;29;20278;-88
2023/01/10 22:25:38;;;;;;;40.53;25.90;;;7.00;99.90;;;;;;10069274;29;20320;-88
2023/01/10 22:30:42;;;;;;;42.33;26.80;;;7.00;99.90;;;;;;10066144;29;20325;-88
2023/01/10 22:35:44;;;;;;;43.87;27.80;;;6.90;99.90;;;;;;10047069;29;20225;-88
2023/01/10 22:40:50;;;;;;;40.47;23.47;;;6.90;99.90;;;;;;10062862;29;20683;-88
2023/01/10 22:45:54;;;;;;;40.47;23.77;;;6.90;99.90;;;;;;10050628;29;20801;-87
2023/01/10 22:50:58;;;;;;;40.60;24.80;;;6.90;99.90;;;;;;10071232;29;20659;-90
2023/01/10 22:56:06;;;;;;;37.37;23.33;;;6.80;99.90;;;;;;10020733;29;20284;-89
2023/01/10 23:01:08;;;;;;;45.17;24.07;;;7.00;99.90;;;;;;10045464;29;20257;-90
2023/01/10 23:06:11;;;;;;;32.53;21.50;;;6.80;99.90;;;;;;10041889;29;20730;-90
2023/01/10 23:11:17;;;;;;;39.20;21.33;;;6.60;99.90;;;;;;10063128;29;20625;-90
2023/01/10 23:16:27;;;;;;;35.30;20.33;;;6.40;99.90;;;;;;10049923;29;20245;-89
2023/01/10 23:21:30;;;;;;;33.70;21.43;;;6.60;99.90;;;;;;10060174;29;21027;-90
2023/01/10 23:26:35;;;;;;;32.00;19.10;;;6.60;99.90;;;;;;10063136;29;20264;-90
2023/01/10 23:31:38;;;;;;;33.63;19.00;;;6.70;99.90;;;;;;10055824;29;20244;-90
2023/01/10 23:36:41;;;;;;;30.80;18.87;;;6.50;99.90;;;;;;10087648;29;20674;-90
2023/01/10 23:41:43;;;;;;;30.20;17.63;;;6.40;99.90;;;;;;10066517;29;20313;-91
2023/01/10 23:46:46;;;;;;;29.30;17.13;;;6.30;99.90;;;;;;10070905;29;20768;-91
2023/01/10 23:51:51;;;;;;;29.00;18.67;;;6.40;99.90;;;;;;10060893;29;20316;-88
2023/01/10 23:56:54;;;;;;;26.07;17.63;;;5.80;99.90;;;;;;10058202;29;20269;-87
